Olney, TX (76374)

11:22 AM CDT on September 05, 2015 (GMT -0500)
olney | | Change Station
CLOSE
Current Station
Personal Weather Station
Location: Olney, TX
Elevation: 1220 ft
Nearby Weather Stations

Elev 1220 ft 33.37 °N, 98.76 °W | Updated 5 minutes ago

Clear
Clear
89.2 °F
Feels Like 96 °F
N
5.8
Wind Variable Wind from South

Today
High -- | Low -- °F
--% Chance of Precip.
Yesterday
High -- | Low -- °F
Precip. -- in
7:11 AM 7:55 PM
Waning Gibbous, 47% visible
Pressure 30.01 in
Visibility 10.0 miles
Clouds Clear
Heat Index 96 °F
Dew Point 71 °F
Humidity 56%
Rainfall 0.00 in
Snow Depth Not available.
UV 6 out of 12
Pollen 10.30 out of 12
Air Quality Not available.
Flu Activity Not available.
METAR KRPH 051555Z AUTO 17005KT 10SM CLR 31/22 A3001 RMK AO2 T03130218
Pressure 30.01 in
Visibility 10.0 miles
Clouds Clear
Heat Index 96 °F
Dew Point 71 °F
Humidity 56%
Rainfall 0.00 in
Snow Depth Not available.
UV 6 out of 12
Pollen 10.30 out of 12
Air Quality Not available.
Flu Activity Not available.
METAR KRPH 051555Z AUTO 17005KT 10SM CLR 31/22 A3001 RMK AO2 T03130218

10-Day Weather Forecast

×

Almanac

Astronomy

Sep. 05, 2015 Rise Set
Actual Time
Civil Twilight
Nautical Twilight
Astronomical Twilight
Moon
Length of Visible Light
Length of Day
Tomorrow will be .
, % of the Moon is Illuminated

Today's Extremes

State Highs State Lows

Community

WunderPhotos

Upload Photos

1,852,495 photos uploaded!

WunderBlogs® & News

Nearby

Air Quality

  Air Quality AQ Index Pollutant
Not available.

Snow Depth

Station Depth Elevation

Earthquake Activity

City Distance Mag. Time & Date
Minimum magnitude displayed is 2.5.

Coastal Water Temperatures

Place Temperature

Stations

Nearby Weather Stations

Station Location Temp. Windchill Dew Point Humidity Wind Precip. Elev Updated Type